Kinrooi, Belgium
Current Conditions -  °F | °C
As of 5:25 AM on Tuesday 21 Oct 2014 (Local Time) from EBBL Reporting Station
Broken Clouds Broken Clouds  
Wind Chill: 12°   Ceiling: 4000
Heat Index: 12°   Visibility: 6mi
Dew Point: 10°   Wind: 9mph
Humidity: 88%   Direction: 220°SW
Pressure: 29.83"   Gusts: NA
Location:  51.15°N, 5.74°E
Report Text: EBBL 210325Z 22008KT 9999 SCT015 BKN040 12/10 Q1010 WHT
Loading
Personal Weather Stations






























Interactive Weather Map
Tropical Storm Tracking
New forecast layout! Learn more

10-Day Weather Forecast

Advertisements
Track Severe Weather on mobile